sensor_id;sensor_type;location;lat;lon;timestamp;pressure;altitude;pressure_sealevel;temperature;humidity
55066;BME280;40964;42.114;24.220;2022-12-26T00:00:55;98747.03;;;7.02;71.87
55066;BME280;40964;42.114;24.220;2022-12-26T00:03:21;98755.19;;;6.99;71.91
55066;BME280;40964;42.114;24.220;2022-12-26T00:05:47;98748.09;;;6.85;72.00
55066;BME280;40964;42.114;24.220;2022-12-26T00:08:12;98756.56;;;6.87;72.44
55066;BME280;40964;42.114;24.220;2022-12-26T00:10:38;98757.56;;;6.77;72.77
55066;BME280;40964;42.114;24.220;2022-12-26T00:13:03;98764.75;;;6.83;72.50
55066;BME280;40964;42.114;24.220;2022-12-26T00:15:29;98763.94;;;6.83;72.03
55066;BME280;40964;42.114;24.220;2022-12-26T00:17:54;98768.31;;;6.82;72.14
55066;BME280;40964;42.114;24.220;2022-12-26T00:20:20;98777.03;;;6.83;71.96
55066;BME280;40964;42.114;24.220;2022-12-26T00:22:45;98782.72;;;6.78;71.96
55066;BME280;40964;42.114;24.220;2022-12-26T00:25:11;98767.72;;;6.64;72.04
55066;BME280;40964;42.114;24.220;2022-12-26T00:27:36;98773.44;;;6.68;72.64
55066;BME280;40964;42.114;24.220;2022-12-26T00:30:02;98767.91;;;6.63;72.49
55066;BME280;40964;42.114;24.220;2022-12-26T00:32:28;98783.41;;;6.64;72.36
55066;BME280;40964;42.114;24.220;2022-12-26T00:34:54;98771.22;;;6.48;72.79
55066;BME280;40964;42.114;24.220;2022-12-26T00:37:19;98775.63;;;6.48;73.07
55066;BME280;40964;42.114;24.220;2022-12-26T00:39:44;98779.84;;;6.57;72.35
55066;BME280;40964;42.114;24.220;2022-12-26T00:42:10;98775.94;;;6.53;72.74
55066;BME280;40964;42.114;24.220;2022-12-26T00:44:35;98772.66;;;6.51;72.94
55066;BME280;40964;42.114;24.220;2022-12-26T00:47:01;98776.44;;;6.57;73.15
55066;BME280;40964;42.114;24.220;2022-12-26T00:49:26;98776.56;;;6.55;72.94
55066;BME280;40964;42.114;24.220;2022-12-26T00:51:52;98776.91;;;6.52;73.21
55066;BME280;40964;42.114;24.220;2022-12-26T00:54:17;98772.19;;;6.47;72.78
55066;BME280;40964;42.114;24.220;2022-12-26T00:56:42;98770.53;;;6.46;72.56
55066;BME280;40964;42.114;24.220;2022-12-26T00:59:08;98777.25;;;6.41;72.76
55066;BME280;40964;42.114;24.220;2022-12-26T01:01:33;98775.94;;;6.37;73.08
55066;BME280;40964;42.114;24.220;2022-12-26T01:03:59;98773.50;;;6.35;73.38
55066;BME280;40964;42.114;24.220;2022-12-26T01:06:24;98767.28;;;6.36;73.26
55066;BME280;40964;42.114;24.220;2022-12-26T01:08:50;98759.47;;;6.36;72.53
55066;BME280;40964;42.114;24.220;2022-12-26T01:11:16;98766.81;;;6.41;72.15
55066;BME280;40964;42.114;24.220;2022-12-26T01:14:06;98775.63;;;6.40;72.05
55066;BME280;40964;42.114;24.220;2022-12-26T01:16:31;98777.09;;;6.34;72.23
55066;BME280;40964;42.114;24.220;2022-12-26T01:18:57;98772.53;;;6.20;72.55
55066;BME280;40964;42.114;24.220;2022-12-26T01:21:22;98775.13;;;6.20;72.65
55066;BME280;40964;42.114;24.220;2022-12-26T01:23:47;98766.53;;;6.11;72.85
55066;BME280;40964;42.114;24.220;2022-12-26T01:26:13;98776.47;;;6.08;72.98
55066;BME280;40964;42.114;24.220;2022-12-26T01:28:38;98775.81;;;6.06;73.07
55066;BME280;40964;42.114;24.220;2022-12-26T01:31:04;98765.72;;;6.03;73.32
55066;BME280;40964;42.114;24.220;2022-12-26T01:33:31;98773.03;;;6.07;73.06
55066;BME280;40964;42.114;24.220;2022-12-26T01:35:56;98773.03;;;5.99;73.04
55066;BME280;40964;42.114;24.220;2022-12-26T01:38:22;98785.56;;;5.87;74.44
55066;BME280;40964;42.114;24.220;2022-12-26T01:40:48;98783.41;;;5.75;74.32
55066;BME280;40964;42.114;24.220;2022-12-26T01:46:19;98809.84;;;5.72;74.80
55066;BME280;40964;42.114;24.220;2022-12-26T01:48:46;98809.03;;;5.79;73.94
55066;BME280;40964;42.114;24.220;2022-12-26T01:51:12;98811.31;;;5.74;74.35
55066;BME280;40964;42.114;24.220;2022-12-26T01:53:44;98815.56;;;5.67;75.28
55066;BME280;40964;42.114;24.220;2022-12-26T01:56:23;98812.13;;;5.66;74.75
55066;BME280;40964;42.114;24.220;2022-12-26T01:58:54;98817.81;;;5.62;74.68
55066;BME280;40964;42.114;24.220;2022-12-26T02:01:24;98811.94;;;5.60;75.47
55066;BME280;40964;42.114;24.220;2022-12-26T02:03:52;98809.63;;;5.57;75.72
55066;BME280;40964;42.114;24.220;2022-12-26T02:06:37;98812.06;;;5.42;76.43
55066;BME280;40964;42.114;24.220;2022-12-26T02:09:02;98804.38;;;5.32;77.28
55066;BME280;40964;42.114;24.220;2022-12-26T02:11:35;98803.72;;;5.30;76.91
55066;BME280;40964;42.114;24.220;2022-12-26T02:14:05;98803.53;;;5.24;77.62
55066;BME280;40964;42.114;24.220;2022-12-26T02:16:32;98806.75;;;5.18;77.59
55066;BME280;40964;42.114;24.220;2022-12-26T02:18:58;98793.38;;;5.12;77.95
55066;BME280;40964;42.114;24.220;2022-12-26T02:27:27;98797.34;;;4.91;78.89
55066;BME280;40964;42.114;24.220;2022-12-26T02:33:34;98799.94;;;4.91;79.31
55066;BME280;40964;42.114;24.220;2022-12-26T02:39:04;98800.31;;;4.96;79.36
55066;BME280;40964;42.114;24.220;2022-12-26T02:47:57;98809.63;;;5.06;78.17
55066;BME280;40964;42.114;24.220;2022-12-26T02:50:52;98800.03;;;5.07;77.77
55066;BME280;40964;42.114;24.220;2022-12-26T02:54:15;98793.59;;;4.93;78.37
55066;BME280;40964;42.114;24.220;2022-12-26T02:57:04;98799.13;;;4.90;77.87
55066;BME280;40964;42.114;24.220;2022-12-26T03:00:24;98808.53;;;4.83;78.45
55066;BME280;40964;42.114;24.220;2022-12-26T03:03:19;98798.75;;;4.85;78.63
55066;BME280;40964;42.114;24.220;2022-12-26T03:06:10;98777.09;;;4.76;78.57
55066;BME280;40964;42.114;24.220;2022-12-26T03:09:01;98775.38;;;4.67;78.93
55066;BME280;40964;42.114;24.220;2022-12-26T03:11:50;98785.50;;;4.70;79.37
55066;BME280;40964;42.114;24.220;2022-12-26T03:14:48;98782.84;;;4.62;80.30
55066;BME280;40964;42.114;24.220;2022-12-26T03:20:01;98782.56;;;4.21;81.65
55066;BME280;40964;42.114;24.220;2022-12-26T03:25:05;98807.78;;;4.21;82.08
55066;BME280;40964;42.114;24.220;2022-12-26T03:27:50;98789.97;;;4.08;82.32
55066;BME280;40964;42.114;24.220;2022-12-26T03:30:15;98804.31;;;4.12;82.33
55066;BME280;40964;42.114;24.220;2022-12-26T03:32:59;98806.25;;;4.10;83.39
55066;BME280;40964;42.114;24.220;2022-12-26T03:35:30;98814.13;;;4.01;83.52
55066;BME280;40964;42.114;24.220;2022-12-26T03:38:10;98806.91;;;3.94;83.90
55066;BME280;40964;42.114;24.220;2022-12-26T03:41:05;98799.19;;;3.85;83.41
55066;BME280;40964;42.114;24.220;2022-12-26T03:44:12;98813.09;;;3.93;83.39
55066;BME280;40964;42.114;24.220;2022-12-26T03:50:13;98806.09;;;3.94;83.00
55066;BME280;40964;42.114;24.220;2022-12-26T03:53:08;98809.31;;;3.88;82.75
55066;BME280;40964;42.114;24.220;2022-12-26T03:55:54;98808.63;;;3.86;82.32
55066;BME280;40964;42.114;24.220;2022-12-26T04:01:27;98816.00;;;3.73;82.97
55066;BME280;40964;42.114;24.220;2022-12-26T04:04:14;98813.00;;;3.67;83.64
55066;BME280;40964;42.114;24.220;2022-12-26T04:07:05;98802.47;;;3.51;83.51
55066;BME280;40964;42.114;24.220;2022-12-26T04:10:01;98828.31;;;3.53;84.19
55066;BME280;40964;42.114;24.220;2022-12-26T04:12:46;98828.72;;;3.48;84.54
55066;BME280;40964;42.114;24.220;2022-12-26T04:15:53;98847.38;;;3.44;84.20
55066;BME280;40964;42.114;24.220;2022-12-26T04:21:35;98853.72;;;3.31;85.44
55066;BME280;40964;42.114;24.220;2022-12-26T04:24:26;98839.97;;;3.21;85.92
55066;BME280;40964;42.114;24.220;2022-12-26T04:27:13;98845.81;;;3.23;85.91
55066;BME280;40964;42.114;24.220;2022-12-26T04:29:59;98847.38;;;3.16;86.13
55066;BME280;40964;42.114;24.220;2022-12-26T04:32:48;98849.44;;;3.12;85.99
55066;BME280;40964;42.114;24.220;2022-12-26T04:35:45;98846.72;;;3.04;87.48
55066;BME280;40964;42.114;24.220;2022-12-26T04:38:37;98837.19;;;2.95;87.77
55066;BME280;40964;42.114;24.220;2022-12-26T04:41:25;98833.81;;;2.85;87.79
55066;BME280;40964;42.114;24.220;2022-12-26T04:44:11;98839.56;;;2.89;87.68
55066;BME280;40964;42.114;24.220;2022-12-26T04:46:42;98847.59;;;2.85;88.16
55066;BME280;40964;42.114;24.220;2022-12-26T04:49:11;98829.91;;;2.71;88.45
55066;BME280;40964;42.114;24.220;2022-12-26T04:51:57;98852.44;;;2.80;89.04
55066;BME280;40964;42.114;24.220;2022-12-26T04:54:23;98850.78;;;2.79;89.52
55066;BME280;40964;42.114;24.220;2022-12-26T04:56:49;98849.41;;;2.75;89.85
55066;BME280;40964;42.114;24.220;2022-12-26T04:59:15;98845.47;;;2.71;90.07
55066;BME280;40964;42.114;24.220;2022-12-26T05:01:40;98844.50;;;2.72;90.93
55066;BME280;40964;42.114;24.220;2022-12-26T05:04:25;98851.19;;;2.75;90.71
55066;BME280;40964;42.114;24.220;2022-12-26T05:07:33;98848.44;;;2.76;91.38
55066;BME280;40964;42.114;24.220;2022-12-26T05:10:21;98850.53;;;2.73;90.93
55066;BME280;40964;42.114;24.220;2022-12-26T05:12:48;98854.75;;;2.74;91.74
55066;BME280;40964;42.114;24.220;2022-12-26T05:15:14;98856.53;;;2.73;91.67
55066;BME280;40964;42.114;24.220;2022-12-26T05:17:40;98856.53;;;2.73;91.05
55066;BME280;40964;42.114;24.220;2022-12-26T05:20:24;98857.50;;;2.72;90.89
55066;BME280;40964;42.114;24.220;2022-12-26T05:23:17;98861.06;;;2.71;91.80
55066;BME280;40964;42.114;24.220;2022-12-26T05:26:03;98874.31;;;2.68;91.10
55066;BME280;40964;42.114;24.220;2022-12-26T05:28:57;98867.63;;;2.66;91.81
55066;BME280;40964;42.114;24.220;2022-12-26T05:31:23;98874.06;;;2.62;91.24
55066;BME280;40964;42.114;24.220;2022-12-26T05:33:49;98872.41;;;2.51;92.17
55066;BME280;40964;42.114;24.220;2022-12-26T05:36:34;98868.19;;;2.50;92.10
55066;BME280;40964;42.114;24.220;2022-12-26T05:39:00;98853.59;;;2.39;93.47
55066;BME280;40964;42.114;24.220;2022-12-26T05:41:26;98862.88;;;2.42;93.79
55066;BME280;40964;42.114;24.220;2022-12-26T05:43:52;98873.69;;;2.37;94.21
55066;BME280;40964;42.114;24.220;2022-12-26T05:46:17;98871.22;;;2.36;93.92
55066;BME280;40964;42.114;24.220;2022-12-26T05:48:43;98872.84;;;2.37;93.93
55066;BME280;40964;42.114;24.220;2022-12-26T05:51:08;98873.69;;;2.37;94.10
55066;BME280;40964;42.114;24.220;2022-12-26T05:53:34;98876.13;;;2.29;94.24
55066;BME280;40964;42.114;24.220;2022-12-26T05:56:08;98881.03;;;2.22;94.14
55066;BME280;40964;42.114;24.220;2022-12-26T05:58:34;98832.72;;;1.92;94.04
55066;BME280;40964;42.114;24.220;2022-12-26T06:01:19;98877.50;;;2.14;94.12
55066;BME280;40964;42.114;24.220;2022-12-26T06:03:47;98890.22;;;2.17;94.79
55066;BME280;40964;42.114;24.220;2022-12-26T06:06:13;98886.53;;;2.19;95.00
55066;BME280;40964;42.114;24.220;2022-12-26T06:08:39;98897.19;;;2.26;95.13
55066;BME280;40964;42.114;24.220;2022-12-26T06:11:09;98894.59;;;2.26;94.72
55066;BME280;40964;42.114;24.220;2022-12-26T06:13:35;98899.50;;;2.19;96.06
55066;BME280;40964;42.114;24.220;2022-12-26T06:16:06;98881.47;;;2.08;95.25
55066;BME280;40964;42.114;24.220;2022-12-26T06:18:32;98899.34;;;2.21;94.83
55066;BME280;40964;42.114;24.220;2022-12-26T06:20:58;98897.19;;;2.26;94.60
55066;BME280;40964;42.114;24.220;2022-12-26T06:23:23;98903.59;;;2.32;95.50
55066;BME280;40964;42.114;24.220;2022-12-26T06:25:53;98897.72;;;2.20;95.54
55066;BME280;40964;42.114;24.220;2022-12-26T06:28:20;98897.72;;;2.30;96.17
55066;BME280;40964;42.114;24.220;2022-12-26T06:30:45;98900.97;;;2.41;95.12
55066;BME280;40964;42.114;24.220;2022-12-26T06:33:11;98898.28;;;2.52;94.89
55066;BME280;40964;42.114;24.220;2022-12-26T06:35:36;98902.06;;;2.58;94.84
55066;BME280;40964;42.114;24.220;2022-12-26T06:38:02;98903.44;;;2.62;93.46
55066;BME280;40964;42.114;24.220;2022-12-26T06:40:27;98883.75;;;2.60;93.75
55066;BME280;40964;42.114;24.220;2022-12-26T06:42:53;98909.84;;;2.77;94.52
55066;BME280;40964;42.114;24.220;2022-12-26T06:45:18;98913.25;;;2.88;94.86
55066;BME280;40964;42.114;24.220;2022-12-26T06:47:44;98911.72;;;2.95;94.67
55066;BME280;40964;42.114;24.220;2022-12-26T06:50:10;98912.13;;;3.00;94.42
55066;BME280;40964;42.114;24.220;2022-12-26T06:52:36;98905.81;;;3.02;94.34
55066;BME280;40964;42.114;24.220;2022-12-26T06:55:01;98911.53;;;3.16;93.73
55066;BME280;40964;42.114;24.220;2022-12-26T06:57:27;98904.13;;;3.21;93.95
55066;BME280;40964;42.114;24.220;2022-12-26T06:59:52;98912.84;;;3.29;92.83
55066;BME280;40964;42.114;24.220;2022-12-26T07:02:18;98902.72;;;3.36;92.71
55066;BME280;40964;42.114;24.220;2022-12-26T07:04:43;98910.31;;;3.47;91.81
55066;BME280;40964;42.114;24.220;2022-12-26T07:07:08;98925.69;;;3.68;91.62
55066;BME280;40964;42.114;24.220;2022-12-26T07:09:34;98928.94;;;3.80;90.36
55066;BME280;40964;42.114;24.220;2022-12-26T07:11:59;98932.13;;;3.91;90.40
55066;BME280;40964;42.114;24.220;2022-12-26T07:14:25;98936.31;;;4.02;90.31
55066;BME280;40964;42.114;24.220;2022-12-26T07:16:50;98934.63;;;4.11;90.35
55066;BME280;40964;42.114;24.220;2022-12-26T07:19:16;98928.75;;;4.09;89.55
55066;BME280;40964;42.114;24.220;2022-12-26T07:21:42;98944.81;;;4.22;88.86
55066;BME280;40964;42.114;24.220;2022-12-26T07:24:15;98945.59;;;4.32;88.63
55066;BME280;40964;42.114;24.220;2022-12-26T07:26:42;98951.72;;;4.31;89.35
55066;BME280;40964;42.114;24.220;2022-12-26T07:29:09;98948.47;;;4.29;87.93
55066;BME280;40964;42.114;24.220;2022-12-26T07:31:35;98950.84;;;4.40;88.25
55066;BME280;40964;42.114;24.220;2022-12-26T07:34:00;98952.28;;;4.52;87.54
55066;BME280;40964;42.114;24.220;2022-12-26T07:36:25;98946.91;;;4.54;87.08
55066;BME280;40964;42.114;24.220;2022-12-26T07:38:51;98953.53;;;4.66;86.84
55066;BME280;40964;42.114;24.220;2022-12-26T07:41:17;98964.16;;;4.73;86.68
55066;BME280;40964;42.114;24.220;2022-12-26T07:44:01;98953.00;;;4.80;86.31
55066;BME280;40964;42.114;24.220;2022-12-26T07:46:27;98958.63;;;4.94;85.95
55066;BME280;40964;42.114;24.220;2022-12-26T07:48:52;98964.44;;;5.05;86.02
55066;BME280;40964;42.114;24.220;2022-12-26T07:51:18;98964.78;;;5.10;85.80
55066;BME280;40964;42.114;24.220;2022-12-26T07:53:44;98954.94;;;5.22;85.41
55066;BME280;40964;42.114;24.220;2022-12-26T07:56:10;98970.00;;;5.36;85.02
55066;BME280;40964;42.114;24.220;2022-12-26T07:58:35;98971.41;;;5.49;84.23
55066;BME280;40964;42.114;24.220;2022-12-26T08:01:01;98964.56;;;5.56;84.06
55066;BME280;40964;42.114;24.220;2022-12-26T08:03:27;98967.69;;;5.59;82.68
55066;BME280;40964;42.114;24.220;2022-12-26T08:05:52;98964.00;;;5.70;81.94
55066;BME280;40964;42.114;24.220;2022-12-26T08:08:18;98974.78;;;5.75;80.77
55066;BME280;40964;42.114;24.220;2022-12-26T08:10:43;98975.16;;;5.88;81.68
55066;BME280;40964;42.114;24.220;2022-12-26T08:13:09;98957.34;;;5.84;87.04
55066;BME280;40964;42.114;24.220;2022-12-26T08:15:38;98971.25;;;5.84;86.99
55066;BME280;40964;42.114;24.220;2022-12-26T08:18:04;98948.81;;;5.74;85.92
55066;BME280;40964;42.114;24.220;2022-12-26T08:20:29;98963.09;;;5.87;86.84
55066;BME280;40964;42.114;24.220;2022-12-26T08:22:55;98962.16;;;5.96;87.06
55066;BME280;40964;42.114;24.220;2022-12-26T08:25:20;98964.28;;;6.01;86.96
55066;BME280;40964;42.114;24.220;2022-12-26T08:27:46;98956.47;;;6.09;86.76
55066;BME280;40964;42.114;24.220;2022-12-26T08:30:11;98937.25;;;6.18;86.95
55066;BME280;40964;42.114;24.220;2022-12-26T08:32:37;98942.19;;;6.30;86.47
55066;BME280;40964;42.114;24.220;2022-12-26T08:35:02;98928.63;;;6.34;84.73
55066;BME280;40964;42.114;24.220;2022-12-26T08:37:28;98922.78;;;6.48;84.79
55066;BME280;40964;42.114;24.220;2022-12-26T08:39:53;98923.44;;;6.67;82.55
55066;BME280;40964;42.114;24.220;2022-12-26T08:42:19;98923.44;;;6.83;82.31
55066;BME280;40964;42.114;24.220;2022-12-26T08:44:45;98900.19;;;6.96;80.76
55066;BME280;40964;42.114;24.220;2022-12-26T08:47:11;98900.50;;;7.09;79.23
55066;BME280;40964;42.114;24.220;2022-12-26T08:49:37;98889.53;;;7.22;79.79
55066;BME280;40964;42.114;24.220;2022-12-26T08:52:02;98889.66;;;7.29;80.04
55066;BME280;40964;42.114;24.220;2022-12-26T08:54:28;98880.81;;;7.38;79.62
55066;BME280;40964;42.114;24.220;2022-12-26T08:56:54;98889.25;;;7.56;79.37
55066;BME280;40964;42.114;24.220;2022-12-26T08:59:19;98875.63;;;7.61;78.85
55066;BME280;40964;42.114;24.220;2022-12-26T09:01:44;98876.91;;;7.73;81.10
55066;BME280;40964;42.114;24.220;2022-12-26T09:04:11;98877.03;;;7.72;82.43
55066;BME280;40964;42.114;24.220;2022-12-26T09:06:37;98876.03;;;7.81;82.10
55066;BME280;40964;42.114;24.220;2022-12-26T09:09:04;98862.97;;;7.73;81.19
55066;BME280;40964;42.114;24.220;2022-12-26T09:11:31;98878.31;;;7.84;81.75
55066;BME280;40964;42.114;24.220;2022-12-26T09:13:59;98885.94;;;7.93;81.62
55066;BME280;40964;42.114;24.220;2022-12-26T09:16:28;98880.19;;;7.98;81.98
55066;BME280;40964;42.114;24.220;2022-12-26T09:18:59;98883.34;;;7.93;79.61
55066;BME280;40964;42.114;24.220;2022-12-26T09:21:26;98873.50;;;7.95;81.59
55066;BME280;40964;42.114;24.220;2022-12-26T09:23:56;98878.13;;;7.85;80.60
55066;BME280;40964;42.114;24.220;2022-12-26T09:26:22;98877.78;;;7.88;81.86
55066;BME280;40964;42.114;24.220;2022-12-26T09:28:48;98884.28;;;8.01;80.81
55066;BME280;40964;42.114;24.220;2022-12-26T09:31:19;98877.69;;;8.05;75.69
55066;BME280;40964;42.114;24.220;2022-12-26T09:33:45;98880.44;;;8.11;76.57
55066;BME280;40964;42.114;24.220;2022-12-26T09:36:16;98875.09;;;8.28;73.61
55066;BME280;40964;42.114;24.220;2022-12-26T09:38:43;98877.97;;;8.41;73.25
55066;BME280;40964;42.114;24.220;2022-12-26T09:44:06;98874.59;;;8.55;74.77
55066;BME280;40964;42.114;24.220;2022-12-26T09:49:15;98864.50;;;8.96;69.45
55066;BME280;40964;42.114;24.220;2022-12-26T09:51:48;98856.38;;;8.91;65.37
55066;BME280;40964;42.114;24.220;2022-12-26T09:54:28;98859.19;;;9.04;66.79
55066;BME280;40964;42.114;24.220;2022-12-26T09:56:55;98855.75;;;9.19;64.32
55066;BME280;40964;42.114;24.220;2022-12-26T09:59:21;98858.31;;;9.27;65.41
55066;BME280;40964;42.114;24.220;2022-12-26T10:01:50;98858.94;;;9.29;63.84
55066;BME280;40964;42.114;24.220;2022-12-26T10:14:58;98855.69;;;9.78;62.06
55066;BME280;40964;42.114;24.220;2022-12-26T10:17:41;98855.06;;;9.76;62.56
55066;BME280;40964;42.114;24.220;2022-12-26T10:25:43;98848.28;;;10.03;63.23
55066;BME280;40964;42.114;24.220;2022-12-26T10:30:52;98845.94;;;9.93;61.75
55066;BME280;40964;42.114;24.220;2022-12-26T10:33:46;98830.69;;;10.03;62.59
55066;BME280;40964;42.114;24.220;2022-12-26T10:36:31;98829.09;;;10.23;61.81
55066;BME280;40964;42.114;24.220;2022-12-26T10:39:01;98824.56;;;10.39;60.24
55066;BME280;40964;42.114;24.220;2022-12-26T10:41:41;98822.13;;;10.37;60.06
55066;BME280;40964;42.114;24.220;2022-12-26T10:44:10;98829.16;;;10.30;60.01
55066;BME280;40964;42.114;24.220;2022-12-26T10:49:33;98825.84;;;10.43;59.73
55066;BME280;40964;42.114;24.220;2022-12-26T10:51:59;98825.31;;;10.54;58.31
55066;BME280;40964;42.114;24.220;2022-12-26T10:54:27;98815.81;;;10.53;58.50
55066;BME280;40964;42.114;24.220;2022-12-26T10:56:55;98820.47;;;10.58;57.51
55066;BME280;40964;42.114;24.220;2022-12-26T10:59:47;98814.66;;;10.62;57.77
55066;BME280;40964;42.114;24.220;2022-12-26T11:02:30;98812.09;;;10.75;57.73
55066;BME280;40964;42.114;24.220;2022-12-26T11:07:25;98799.47;;;10.64;58.54
55066;BME280;40964;42.114;24.220;2022-12-26T11:09:52;98793.06;;;10.73;58.43
55066;BME280;40964;42.114;24.220;2022-12-26T11:15:01;98787.03;;;10.79;57.06
55066;BME280;40964;42.114;24.220;2022-12-26T11:17:39;98786.50;;;10.91;57.41
55066;BME280;40964;42.114;24.220;2022-12-26T11:22:45;98779.81;;;10.88;56.02
55066;BME280;40964;42.114;24.220;2022-12-26T11:25:25;98771.91;;;10.88;56.09
55066;BME280;40964;42.114;24.220;2022-12-26T11:27:57;98778.25;;;11.00;58.83
55066;BME280;40964;42.114;24.220;2022-12-26T11:30:29;98785.59;;;11.12;57.58
55066;BME280;40964;42.114;24.220;2022-12-26T11:35:27;98782.38;;;11.16;56.25
55066;BME280;40964;42.114;24.220;2022-12-26T11:37:59;98770.59;;;11.12;55.36
55066;BME280;40964;42.114;24.220;2022-12-26T11:40:38;98773.00;;;11.00;55.71
55066;BME280;40964;42.114;24.220;2022-12-26T11:43:31;98764.97;;;11.15;55.98
55066;BME280;40964;42.114;24.220;2022-12-26T11:45:58;98768.94;;;11.04;56.81
55066;BME280;40964;42.114;24.220;2022-12-26T11:48:25;98772.47;;;11.18;55.12
55066;BME280;40964;42.114;24.220;2022-12-26T11:50:52;98776.22;;;11.44;54.70
55066;BME280;40964;42.114;24.220;2022-12-26T11:53:20;98773.47;;;11.17;55.43
55066;BME280;40964;42.114;24.220;2022-12-26T11:56:06;98764.38;;;11.20;57.11
55066;BME280;40964;42.114;24.220;2022-12-26T11:58:34;98763.56;;;11.19;57.67
55066;BME280;40964;42.114;24.220;2022-12-26T12:03:30;98758.06;;;11.14;56.08
55066;BME280;40964;42.114;24.220;2022-12-26T12:14:34;98746.34;;;11.17;56.75
55066;BME280;40964;42.114;24.220;2022-12-26T12:17:18;98760.75;;;11.27;57.03
55066;BME280;40964;42.114;24.220;2022-12-26T12:25:46;98751.50;;;11.45;57.06
55066;BME280;40964;42.114;24.220;2022-12-26T12:34:03;98735.53;;;11.59;55.27
55066;BME280;40964;42.114;24.220;2022-12-26T12:36:35;98741.41;;;11.68;54.66
55066;BME280;40964;42.114;24.220;2022-12-26T12:39:20;98752.44;;;11.91;55.20
55066;BME280;40964;42.114;24.220;2022-12-26T12:42:03;98748.81;;;12.06;55.63
55066;BME280;40964;42.114;24.220;2022-12-26T12:47:38;98749.59;;;12.00;54.53
55066;BME280;40964;42.114;24.220;2022-12-26T13:01:12;98748.06;;;11.57;55.68
55066;BME280;40964;42.114;24.220;2022-12-26T13:03:55;98746.44;;;11.43;56.39
55066;BME280;40964;42.114;24.220;2022-12-26T13:06:42;98743.44;;;11.66;56.93
55066;BME280;40964;42.114;24.220;2022-12-26T13:09:23;98736.75;;;11.63;56.95
55066;BME280;40964;42.114;24.220;2022-12-26T13:12:02;98737.16;;;11.60;56.83
55066;BME280;40964;42.114;24.220;2022-12-26T13:14:39;98744.41;;;11.58;56.06
55066;BME280;40964;42.114;24.220;2022-12-26T13:17:22;98739.38;;;11.63;56.39
55066;BME280;40964;42.114;24.220;2022-12-26T13:20:13;98742.38;;;11.47;56.63
55066;BME280;40964;42.114;24.220;2022-12-26T13:22:44;98744.00;;;11.48;57.17
55066;BME280;40964;42.114;24.220;2022-12-26T13:25:36;98699.16;;;11.28;56.61
55066;BME280;40964;42.114;24.220;2022-12-26T13:28:09;98705.28;;;11.35;55.94
55066;BME280;40964;42.114;24.220;2022-12-26T13:30:36;98734.50;;;11.67;56.08
55066;BME280;40964;42.114;24.220;2022-12-26T13:33:03;98737.59;;;11.77;56.11
55066;BME280;40964;42.114;24.220;2022-12-26T13:35:55;98741.63;;;11.60;59.20
55066;BME280;40964;42.114;24.220;2022-12-26T13:38:23;98741.34;;;11.35;61.00
55066;BME280;40964;42.114;24.220;2022-12-26T13:40:57;98739.63;;;11.14;61.51
55066;BME280;40964;42.114;24.220;2022-12-26T13:44:22;98739.09;;;10.84;62.62
55066;BME280;40964;42.114;24.220;2022-12-26T13:49:37;98746.81;;;10.58;64.18
55066;BME280;40964;42.114;24.220;2022-12-26T13:54:37;98749.97;;;10.18;66.00
55066;BME280;40964;42.114;24.220;2022-12-26T14:00:17;98756.19;;;9.89;66.61
55066;BME280;40964;42.114;24.220;2022-12-26T14:10:53;98753.63;;;9.38;67.70
55066;BME280;40964;42.114;24.220;2022-12-26T14:13:55;98760.47;;;9.18;69.20
55066;BME280;40964;42.114;24.220;2022-12-26T14:24:35;98773.22;;;8.62;71.26
55066;BME280;40964;42.114;24.220;2022-12-26T14:29:57;98775.84;;;8.47;71.56
55066;BME280;40964;42.114;24.220;2022-12-26T14:32:38;98783.72;;;8.47;71.50
55066;BME280;40964;42.114;24.220;2022-12-26T14:35:33;98778.81;;;8.44;71.32
55066;BME280;40964;42.114;24.220;2022-12-26T14:43:38;98790.56;;;8.25;71.71
55066;BME280;40964;42.114;24.220;2022-12-26T14:48:59;98784.56;;;8.02;72.52
55066;BME280;40964;42.114;24.220;2022-12-26T14:51:30;98785.44;;;7.94;72.63
55066;BME280;40964;42.114;24.220;2022-12-26T14:54:33;98782.69;;;7.88;73.12
55066;BME280;40964;42.114;24.220;2022-12-26T14:56:59;98785.53;;;7.78;73.41
55066;BME280;40964;42.114;24.220;2022-12-26T14:59:32;98784.78;;;7.69;73.69
55066;BME280;40964;42.114;24.220;2022-12-26T15:21:39;98786.94;;;6.96;76.15
55066;BME280;40964;42.114;24.220;2022-12-26T15:32:32;98782.97;;;6.28;79.15
55066;BME280;40964;42.114;24.220;2022-12-26T15:40:22;98787.25;;;6.05;80.80
55066;BME280;40964;42.114;24.220;2022-12-26T15:53:51;98792.13;;;6.08;80.12
55066;BME280;40964;42.114;24.220;2022-12-26T16:02:00;98770.25;;;5.92;80.58
55066;BME280;40964;42.114;24.220;2022-12-26T16:04:30;98781.03;;;6.06;80.28
55066;BME280;40964;42.114;24.220;2022-12-26T16:09:53;98781.50;;;6.09;79.43
55066;BME280;40964;42.114;24.220;2022-12-26T16:14:45;98782.03;;;6.13;79.39
55066;BME280;40964;42.114;24.220;2022-12-26T16:19:44;98795.25;;;6.03;79.66
55066;BME280;40964;42.114;24.220;2022-12-26T16:22:25;98793.91;;;5.99;79.78
55066;BME280;40964;42.114;24.220;2022-12-26T16:25:18;98792.13;;;5.91;80.21
55066;BME280;40964;42.114;24.220;2022-12-26T16:27:45;98791.63;;;5.96;79.86
55066;BME280;40964;42.114;24.220;2022-12-26T16:30:19;98780.69;;;6.01;80.30
55066;BME280;40964;42.114;24.220;2022-12-26T16:32:45;98779.72;;;6.02;79.29
55066;BME280;40964;42.114;24.220;2022-12-26T16:35:19;98785.28;;;6.07;79.15
55066;BME280;40964;42.114;24.220;2022-12-26T16:37:46;98780.38;;;6.04;79.06
55066;BME280;40964;42.114;24.220;2022-12-26T16:40:15;98781.69;;;6.08;79.11
55066;BME280;40964;42.114;24.220;2022-12-26T16:42:44;98773.03;;;6.07;78.92
55066;BME280;40964;42.114;24.220;2022-12-26T16:45:19;98770.94;;;6.03;78.50
55066;BME280;40964;42.114;24.220;2022-12-26T16:47:45;98781.84;;;5.98;78.89
55066;BME280;40964;42.114;24.220;2022-12-26T16:50:23;98789.50;;;5.91;79.46